createdAt,value
2016-04-01T00:00:19.439Z,951.4
2016-04-01T00:01:19.456Z,951.36
2016-04-01T00:02:19.459Z,951.34
2016-04-01T00:03:19.493Z,951.34
2016-04-01T00:04:19.480Z,951.33
2016-04-01T00:05:19.483Z,951.28
2016-04-01T00:06:19.485Z,951.3
2016-04-01T00:07:19.488Z,951.35
2016-04-01T00:08:19.506Z,951.33
2016-04-01T00:09:19.509Z,951.36
2016-04-01T00:10:19.511Z,951.34
2016-04-01T00:11:19.530Z,951.32
2016-04-01T00:12:19.533Z,951.3
2016-04-01T00:13:19.536Z,951.32
2016-04-01T00:14:19.554Z,951.26
2016-04-01T00:15:19.557Z,951.3
2016-04-01T00:16:19.559Z,951.27
2016-04-01T00:17:19.578Z,951.26
2016-04-01T00:18:19.596Z,951.28
2016-04-01T00:19:19.582Z,951.31
2016-04-01T00:20:19.602Z,951.3
2016-04-01T00:21:19.604Z,951.34
2016-04-01T00:22:19.606Z,951.33
2016-04-01T00:23:19.610Z,951.34
2016-04-01T00:24:19.628Z,951.35
2016-04-01T00:25:19.631Z,951.32
2016-04-01T00:26:19.634Z,951.32
2016-04-01T00:27:19.651Z,951.29
2016-04-01T00:28:19.654Z,951.31
2016-04-01T00:29:19.656Z,951.27
2016-04-01T00:30:19.659Z,951.33
2016-04-01T00:31:19.678Z,951.32
2016-04-01T00:32:19.680Z,951.33
2016-04-01T00:33:19.699Z,951.34
2016-04-01T00:34:19.701Z,951.32
2016-04-01T00:35:19.703Z,951.3
2016-04-01T00:36:19.723Z,951.33
2016-04-01T00:37:19.725Z,951.32
2016-04-01T00:38:19.727Z,951.32
2016-04-01T00:39:19.731Z,951.3
2016-04-01T00:40:19.733Z,951.33
2016-04-01T00:41:19.752Z,951.32
2016-04-01T00:42:19.755Z,951.36
2016-04-01T00:43:19.757Z,951.33
2016-04-01T00:44:19.775Z,951.32
2016-04-01T00:45:19.777Z,951.32
2016-04-01T00:46:19.780Z,951.31
2016-04-01T00:47:19.783Z,951.33
2016-04-01T00:48:19.832Z,951.34
2016-04-01T00:49:19.804Z,951.37
2016-04-01T00:50:19.807Z,951.36
2016-04-01T00:51:19.826Z,951.35
2016-04-01T00:52:19.829Z,951.39
2016-04-01T00:53:19.831Z,951.37
2016-04-01T00:54:19.848Z,951.35
2016-04-01T00:55:19.852Z,951.32
2016-04-01T00:56:19.855Z,951.29
2016-04-01T00:57:19.873Z,951.28
2016-04-01T00:58:19.876Z,951.27
2016-04-01T00:59:19.878Z,951.28
2016-04-01T01:00:19.881Z,951.33
2016-04-01T01:01:19.899Z,951.31
2016-04-01T01:02:19.902Z,951.34
2016-04-01T01:03:19.936Z,951.35
2016-04-01T01:04:19.923Z,951.37
2016-04-01T01:05:19.926Z,951.34
2016-04-01T01:06:19.928Z,951.37
2016-04-01T01:07:19.931Z,951.39
2016-04-01T01:08:19.949Z,951.43
2016-04-01T01:09:19.952Z,951.43
2016-04-01T01:10:19.955Z,951.44
2016-04-01T01:11:19.973Z,951.42
2016-04-01T01:12:19.975Z,951.41
2016-04-01T01:13:19.978Z,951.45
2016-04-01T01:14:19.981Z,951.4
2016-04-01T01:15:19.999Z,951.4
2016-04-01T01:16:20.002Z,951.36
2016-04-01T01:17:20.005Z,951.37
2016-04-01T01:18:20.023Z,951.35
2016-04-01T01:19:20.026Z,951.42
2016-04-01T01:20:20.029Z,951.4
2016-04-01T01:21:20.031Z,951.4
2016-04-01T01:22:20.049Z,951.38
2016-04-01T01:23:20.068Z,951.39
2016-04-01T01:24:20.054Z,951.39
2016-04-01T01:25:20.073Z,951.39
2016-04-01T01:26:20.076Z,951.35
2016-04-01T01:27:20.078Z,951.39
2016-04-01T01:28:20.096Z,951.4
2016-04-01T01:29:20.099Z,951.43
2016-04-01T01:30:20.102Z,951.45
2016-04-01T01:31:20.104Z,951.49
2016-04-01T01:32:20.123Z,951.51
2016-04-01T01:33:20.157Z,951.4
2016-04-01T01:34:20.128Z,951.43
2016-04-01T01:35:20.147Z,951.47
2016-04-01T01:36:20.149Z,951.46
2016-04-01T01:37:20.152Z,951.43
2016-04-01T01:38:20.170Z,951.46
2016-04-01T01:39:20.173Z,951.46
2016-04-01T01:40:20.191Z,951.46
2016-04-01T01:41:20.178Z,951.5
2016-04-01T01:42:20.197Z,951.54
2016-04-01T01:43:20.199Z,951.48
2016-04-01T01:44:20.202Z,951.51
2016-04-01T01:45:20.220Z,951.47
2016-04-01T01:46:20.224Z,951.54
2016-04-01T01:47:20.226Z,951.53
2016-04-01T01:48:20.275Z,951.58
2016-04-01T01:49:20.247Z,951.6
2016-04-01T01:50:20.265Z,951.56
2016-04-01T01:51:20.252Z,951.59
2016-04-01T01:52:20.271Z,951.6
2016-04-01T01:53:20.273Z,951.6
2016-04-01T01:54:20.276Z,951.57
2016-04-01T01:55:20.279Z,951.57
2016-04-01T01:56:20.297Z,951.57
2016-04-01T01:57:20.299Z,951.56
2016-04-01T01:58:20.318Z,951.54
2016-04-01T01:59:20.321Z,951.57
2016-04-01T02:00:20.323Z,951.59
2016-04-01T02:01:20.326Z,951.59
2016-04-01T02:02:20.344Z,951.54
2016-04-01T02:03:20.425Z,951.58
2016-04-01T02:04:20.350Z,951.59
2016-04-01T02:05:20.352Z,951.61
2016-04-01T02:06:20.370Z,951.59
2016-04-01T02:07:20.373Z,951.6
2016-04-01T02:08:20.381Z,951.65
2016-04-01T02:09:20.383Z,951.66
2016-04-01T02:10:20.402Z,951.61
2016-04-01T02:11:20.405Z,951.58
2016-04-01T02:12:20.408Z,951.6
2016-04-01T02:13:20.410Z,951.61
2016-04-01T02:14:20.428Z,951.62
2016-04-01T02:15:20.430Z,951.62
2016-04-01T02:16:20.433Z,951.62
2016-04-01T02:17:20.452Z,951.62
2016-04-01T02:18:20.518Z,951.65
2016-04-01T02:19:20.458Z,951.61
2016-04-01T02:20:20.460Z,951.69
2016-04-01T02:21:20.478Z,951.69
2016-04-01T02:22:20.481Z,951.75
2016-04-01T02:23:20.484Z,951.7
2016-04-01T02:24:20.502Z,951.7
2016-04-01T02:25:20.504Z,951.73
2016-04-01T02:26:20.523Z,951.79
2016-04-01T02:27:20.510Z,951.77
2016-04-01T02:28:20.529Z,951.74
2016-04-01T02:29:20.532Z,951.82
2016-04-01T02:30:20.534Z,951.83
2016-04-01T02:31:20.553Z,951.83
2016-04-01T02:32:20.555Z,951.81
2016-04-01T02:33:20.573Z,951.83
2016-04-01T02:34:20.560Z,951.83
2016-04-01T02:35:20.578Z,951.85
2016-04-01T02:36:20.581Z,951.85
2016-04-01T02:37:20.584Z,951.83
2016-04-01T02:38:20.603Z,951.93
2016-04-01T02:39:20.605Z,951.98
2016-04-01T02:40:20.608Z,952
2016-04-01T02:41:20.625Z,951.98
2016-04-01T02:42:20.644Z,952.06
2016-04-01T02:43:20.630Z,952.05
2016-04-01T02:44:20.633Z,952.06
2016-04-01T02:45:20.652Z,952.07
2016-04-01T02:46:20.654Z,952.1
2016-04-01T02:47:20.657Z,952.11
2016-04-01T02:48:20.691Z,952.14
2016-04-01T02:49:20.678Z,952.13
2016-04-01T02:50:20.681Z,952.18
2016-04-01T02:51:20.684Z,952.18
2016-04-01T02:52:20.702Z,952.22
2016-04-01T02:53:20.705Z,952.25
2016-04-01T02:54:20.708Z,952.28
2016-04-01T02:55:20.726Z,952.33
2016-04-01T02:56:20.729Z,952.29
2016-04-01T02:57:20.732Z,952.33
2016-04-01T02:58:20.734Z,952.36
2016-04-01T02:59:20.753Z,952.4
2016-04-01T03:00:20.756Z,952.48
2016-04-01T03:01:20.758Z,952.5
2016-04-01T03:02:20.792Z,952.54
2016-04-01T03:03:20.779Z,952.59
2016-04-01T03:04:20.781Z,952.57
2016-04-01T03:05:20.784Z,952.57
2016-04-01T03:06:20.802Z,952.57
2016-04-01T03:07:20.806Z,952.58
2016-04-01T03:08:20.808Z,952.57
2016-04-01T03:09:20.825Z,952.58
2016-04-01T03:10:20.829Z,952.62
2016-04-01T03:11:20.831Z,952.65
2016-04-01T03:12:20.834Z,952.7
2016-04-01T03:13:20.853Z,952.68
2016-04-01T03:14:20.855Z,952.66
2016-04-01T03:15:20.858Z,952.66
2016-04-01T03:16:20.876Z,952.66
2016-04-01T03:17:20.879Z,952.63
2016-04-01T03:18:20.881Z,952.64
2016-04-01T03:19:20.884Z,952.65
2016-04-01T03:20:20.887Z,952.64
2016-04-01T03:21:20.905Z,952.65
2016-04-01T03:22:20.908Z,952.63
2016-04-01T03:23:20.926Z,952.64
2016-04-01T03:24:20.929Z,952.61
2016-04-01T03:25:20.932Z,952.64
2016-04-01T03:26:20.950Z,952.65
2016-04-01T03:27:20.953Z,952.7
2016-04-01T03:28:20.956Z,952.74
2016-04-01T03:29:20.990Z,952.71
2016-04-01T03:30:20.976Z,952.73
2016-04-01T03:31:20.979Z,952.77
2016-04-01T03:32:20.982Z,952.83
2016-04-01T03:33:20.985Z,952.81
2016-04-01T03:34:21.002Z,952.81
2016-04-01T03:35:21.052Z,952.86
2016-04-01T03:36:21.008Z,952.96
2016-04-01T03:37:21.026Z,953.01
2016-04-01T03:38:21.029Z,953.24
2016-04-01T03:39:21.031Z,953.27
2016-04-01T03:40:21.034Z,953.26
2016-04-01T03:41:21.053Z,953.12
2016-04-01T03:42:21.055Z,953.25
2016-04-01T03:43:21.058Z,953.35
2016-04-01T03:44:21.061Z,953.4
2016-04-01T03:45:21.080Z,953.37
2016-04-01T03:46:21.082Z,953.3
2016-04-01T03:47:21.100Z,953.32
2016-04-01T03:48:21.119Z,953.48
2016-04-01T03:49:21.105Z,953.59
2016-04-01T03:50:21.124Z,953.52
2016-04-01T03:51:21.127Z,953.47
2016-04-01T03:52:21.129Z,953.62
2016-04-01T03:53:21.132Z,953.65
2016-04-01T03:54:21.135Z,953.56
2016-04-01T03:55:21.154Z,953.58
2016-04-01T03:56:21.156Z,953.58
2016-04-01T03:57:21.158Z,953.68
2016-04-01T03:58:21.176Z,953.7
2016-04-01T03:59:21.179Z,953.73
2016-04-01T04:00:21.181Z,953.73
2016-04-01T04:01:21.200Z,953.76
2016-04-01T04:02:21.203Z,953.76
2016-04-01T04:03:21.206Z,953.83
2016-04-01T04:04:21.209Z,953.95
2016-04-01T04:05:21.226Z,953.88
2016-04-01T04:06:21.229Z,953.89
2016-04-01T04:07:21.232Z,953.91
2016-04-01T04:08:21.234Z,953.92
2016-04-01T04:09:21.253Z,953.93
2016-04-01T04:10:21.256Z,953.96
2016-04-01T04:11:21.258Z,953.93
2016-04-01T04:12:21.277Z,953.93
2016-04-01T04:13:21.280Z,953.94
2016-04-01T04:14:21.282Z,954.02
2016-04-01T04:15:21.285Z,954.03
2016-04-01T04:16:21.303Z,954.09
2016-04-01T04:17:21.306Z,954.11
2016-04-01T04:18:21.308Z,954.09
2016-04-01T04:19:21.311Z,954.16
2016-04-01T04:20:21.330Z,954.19
2016-04-01T04:21:21.332Z,954.26
2016-04-01T04:22:21.335Z,954.23
2016-04-01T04:23:21.354Z,954.27
2016-04-01T04:24:21.357Z,954.25
2016-04-01T04:25:21.359Z,954.29
2016-04-01T04:26:21.362Z,954.39
2016-04-01T04:27:21.380Z,954.43
2016-04-01T04:28:21.383Z,954.47
2016-04-01T04:29:21.385Z,954.53
2016-04-01T04:30:21.404Z,954.59
2016-04-01T04:31:21.407Z,954.57
2016-04-01T04:32:21.409Z,954.56
2016-04-01T04:33:21.412Z,954.59
2016-04-01T04:34:21.429Z,954.58
2016-04-01T04:35:21.448Z,954.6
2016-04-01T04:36:21.435Z,954.71
2016-04-01T04:37:21.453Z,954.69
2016-04-01T04:38:21.456Z,954.73
2016-04-01T04:39:21.475Z,954.81
2016-04-01T04:40:21.477Z,954.84
2016-04-01T04:41:21.480Z,954.88
2016-04-01T04:42:21.483Z,954.9
2016-04-01T04:43:21.501Z,954.93
2016-04-01T04:44:21.504Z,954.96
2016-04-01T04:45:21.506Z,954.98
2016-04-01T04:46:21.525Z,955.01
2016-04-01T04:47:21.511Z,955.04
2016-04-01T04:48:21.530Z,955.07
2016-04-01T04:49:21.549Z,955.11
2016-04-01T04:50:21.535Z,955.17
2016-04-01T04:51:21.538Z,955.21
2016-04-01T04:52:21.557Z,955.22
2016-04-01T04:53:21.559Z,955.29
2016-04-01T04:54:21.562Z,955.32
2016-04-01T04:55:21.580Z,955.35
2016-04-01T04:56:21.582Z,955.35
2016-04-01T04:57:21.586Z,955.38
2016-04-01T04:58:21.604Z,955.39
2016-04-01T04:59:21.606Z,955.39
2016-04-01T05:00:21.610Z,955.44
2016-04-01T05:01:21.612Z,955.45
2016-04-01T05:02:21.629Z,955.5
2016-04-01T05:03:21.633Z,955.52
2016-04-01T05:04:21.651Z,955.6
2016-04-01T05:05:21.654Z,955.63
2016-04-01T05:06:21.656Z,955.71
2016-04-01T05:07:21.659Z,955.72
2016-04-01T05:08:21.661Z,955.76
2016-04-01T05:09:21.680Z,955.77
2016-04-01T05:10:21.683Z,955.85
2016-04-01T05:11:21.686Z,955.88
2016-04-01T05:12:21.688Z,955.89
2016-04-01T05:13:21.707Z,955.93
2016-04-01T05:14:21.709Z,955.94
2016-04-01T05:15:21.711Z,955.97
2016-04-01T05:16:21.715Z,956.04
2016-04-01T05:17:21.733Z,956.05
2016-04-01T05:18:21.735Z,956.09
2016-04-01T05:19:21.754Z,956.16
2016-04-01T05:20:21.757Z,956.2
2016-04-01T05:21:21.760Z,956.22
2016-04-01T05:22:21.763Z,956.22
2016-04-01T05:23:21.780Z,956.2
2016-04-01T05:24:21.783Z,956.28
2016-04-01T05:25:21.786Z,956.35
2016-04-01T05:26:21.789Z,956.4
2016-04-01T05:27:21.807Z,956.45
2016-04-01T05:28:21.809Z,956.53
2016-04-01T05:29:21.812Z,956.56
2016-04-01T05:30:21.830Z,956.57
2016-04-01T05:31:21.818Z,956.61
2016-04-01T05:32:21.835Z,956.7
2016-04-01T05:33:21.838Z,956.69
2016-04-01T05:34:21.841Z,956.71
2016-04-01T05:35:21.859Z,956.69
2016-04-01T05:36:21.862Z,956.74
2016-04-01T05:37:21.865Z,956.67
2016-04-01T05:38:21.884Z,956.73
2016-04-01T05:39:21.887Z,956.8
2016-04-01T05:40:21.889Z,956.82
2016-04-01T05:41:21.891Z,956.85
2016-04-01T05:42:21.910Z,956.92
2016-04-01T05:43:21.912Z,956.92
2016-04-01T05:44:21.915Z,956.95
2016-04-01T05:45:21.949Z,956.95
2016-04-01T05:46:21.936Z,956.99
2016-04-01T05:47:21.939Z,957
2016-04-01T05:48:21.958Z,956.98
2016-04-01T05:49:21.960Z,957
2016-04-01T05:50:21.977Z,957.02
2016-04-01T05:51:21.965Z,957.09
2016-04-01T05:52:21.968Z,957.09
2016-04-01T05:53:21.986Z,957.13
2016-04-01T05:54:21.989Z,957.16
2016-04-01T05:55:21.991Z,957.17
2016-04-01T05:56:21.994Z,957.18
2016-04-01T05:57:22.013Z,957.21
2016-04-01T05:58:22.015Z,957.27
2016-04-01T05:59:22.018Z,957.26
2016-04-01T06:00:22.036Z,957.38
2016-04-01T06:01:22.038Z,957.35
2016-04-01T06:02:22.042Z,957.42
2016-04-01T06:03:22.043Z,957.45
2016-04-01T06:04:22.046Z,957.46
2016-04-01T06:05:22.065Z,957.5
2016-04-01T06:06:22.067Z,957.51
2016-04-01T06:07:22.087Z,957.5
2016-04-01T06:08:22.093Z,957.5
2016-04-01T06:09:22.096Z,957.52
2016-04-01T06:10:22.099Z,957.55
2016-04-01T06:11:22.117Z,957.49
2016-04-01T06:12:22.119Z,957.53
2016-04-01T06:13:22.122Z,957.57
2016-04-01T06:14:22.125Z,957.58
2016-04-01T06:15:22.128Z,957.56
2016-04-01T06:16:22.146Z,957.61
2016-04-01T06:17:22.149Z,957.67
2016-04-01T06:18:22.151Z,957.68
2016-04-01T06:19:22.169Z,957.7
2016-04-01T06:20:22.172Z,957.69
2016-04-01T06:21:22.174Z,957.7
2016-04-01T06:22:22.192Z,957.67
2016-04-01T06:23:22.195Z,957.71
2016-04-01T06:24:22.199Z,957.71
2016-04-01T06:25:22.201Z,957.71
2016-04-01T06:26:22.203Z,957.78
2016-04-01T06:27:22.222Z,957.82
2016-04-01T06:28:22.225Z,957.83
2016-04-01T06:29:22.228Z,957.85
2016-04-01T06:30:22.245Z,957.84
2016-04-01T06:31:22.248Z,957.86
2016-04-01T06:32:22.251Z,957.86
2016-04-01T06:33:22.270Z,957.84
2016-04-01T06:34:22.273Z,957.82
2016-04-01T06:35:22.275Z,957.85
2016-04-01T06:36:22.294Z,957.87
2016-04-01T06:37:22.297Z,957.88
2016-04-01T06:38:22.299Z,957.84
2016-04-01T06:39:22.302Z,957.91
2016-04-01T06:40:22.305Z,957.91
2016-04-01T06:41:22.322Z,957.91
2016-04-01T06:42:22.325Z,958.02
2016-04-01T06:43:22.327Z,957.99
2016-04-01T06:44:22.330Z,958.01
2016-04-01T06:45:22.349Z,958.08
2016-04-01T06:46:22.351Z,958.08
2016-04-01T06:47:22.369Z,958.1
2016-04-01T06:48:22.372Z,958.12
2016-04-01T06:49:22.375Z,958.1
2016-04-01T06:50:22.378Z,958.11
2016-04-01T06:51:22.380Z,958.13
2016-04-01T06:52:22.399Z,958.16
2016-04-01T06:53:22.418Z,958.18
2016-04-01T06:54:22.404Z,958.22
2016-04-01T06:55:22.407Z,958.26
2016-04-01T06:56:22.426Z,958.31
2016-04-01T06:57:22.428Z,958.32
2016-04-01T06:58:22.431Z,958.35
2016-04-01T06:59:22.448Z,958.35
2016-04-01T07:00:22.451Z,958.36
2016-04-01T07:01:22.454Z,958.4
2016-04-01T07:02:22.457Z,958.41
2016-04-01T07:03:22.475Z,958.4
2016-04-01T07:04:22.478Z,958.41
2016-04-01T07:05:22.481Z,958.43
2016-04-01T07:06:22.484Z,958.4
2016-04-01T07:07:22.502Z,958.47
2016-04-01T07:08:22.504Z,958.5
2016-04-01T07:09:22.507Z,958.56
2016-04-01T07:10:22.510Z,958.53
2016-04-01T07:11:22.528Z,958.59
2016-04-01T07:12:22.547Z,958.59
2016-04-01T07:13:22.533Z,958.59
2016-04-01T07:14:22.567Z,958.57
2016-04-01T07:15:22.554Z,958.6
2016-04-01T07:16:22.557Z,958.61
2016-04-01T07:17:22.575Z,958.68
2016-04-01T07:18:22.578Z,958.66
2016-04-01T07:19:22.581Z,958.66
2016-04-01T07:20:22.600Z,958.66
2016-04-01T07:21:22.602Z,958.72
2016-04-01T07:22:22.604Z,958.74
2016-04-01T07:23:22.607Z,958.77
2016-04-01T07:24:22.611Z,958.79
2016-04-01T07:25:22.628Z,958.82
2016-04-01T07:26:22.631Z,958.85
2016-04-01T07:27:22.634Z,958.85
2016-04-01T07:28:22.652Z,958.84
2016-04-01T07:29:22.654Z,958.87
2016-04-01T07:30:22.658Z,958.85
2016-04-01T07:31:22.660Z,958.87
2016-04-01T07:32:22.678Z,958.85
2016-04-01T07:33:22.682Z,958.84
2016-04-01T07:34:22.684Z,958.86
2016-04-01T07:35:22.703Z,958.9
2016-04-01T07:36:22.706Z,958.93
2016-04-01T07:37:22.724Z,958.96
2016-04-01T07:38:22.711Z,958.94
2016-04-01T07:39:22.729Z,958.94
2016-04-01T07:40:22.732Z,958.96
2016-04-01T07:41:22.734Z,958.97
2016-04-01T07:42:22.753Z,959.01
2016-04-01T07:43:22.756Z,959.03
2016-04-01T07:44:22.745Z,959.08
2016-04-01T07:45:22.731Z,959.09
2016-04-01T07:46:22.734Z,959.1
2016-04-01T07:47:22.721Z,959.13
2016-04-01T07:48:22.708Z,959.15
2016-04-01T07:49:22.721Z,959.11
2016-04-01T07:50:22.718Z,959.16
2016-04-01T07:51:22.715Z,959.18
2016-04-01T07:52:22.713Z,959.22
2016-04-01T07:53:22.727Z,959.22
2016-04-01T07:54:22.726Z,959.27
2016-04-01T07:55:22.727Z,959.25
2016-04-01T07:56:22.743Z,959.28
2016-04-01T07:57:22.744Z,959.31
2016-04-01T07:58:22.761Z,959.3
2016-04-01T07:59:22.763Z,959.31
2016-04-01T08:00:22.765Z,959.28
2016-04-01T08:01:22.767Z,959.29
2016-04-01T08:02:22.769Z,959.28
2016-04-01T08:03:22.787Z,959.3
2016-04-01T08:04:22.789Z,959.31
2016-04-01T08:05:22.806Z,959.29
2016-04-01T08:06:22.808Z,959.34
2016-04-01T08:07:22.811Z,959.33
2016-04-01T08:08:22.813Z,959.33
2016-04-01T08:09:22.816Z,959.31
2016-04-01T08:10:22.834Z,959.33
2016-04-01T08:11:22.837Z,959.37
2016-04-01T08:12:22.855Z,959.38
2016-04-01T08:13:22.843Z,959.43
2016-04-01T08:14:22.860Z,959.47
2016-04-01T08:15:22.863Z,959.49
2016-04-01T08:16:22.866Z,959.44
2016-04-01T08:17:22.884Z,959.47
2016-04-01T08:18:22.887Z,959.49
2016-04-01T08:19:22.890Z,959.49
2016-04-01T08:20:22.892Z,959.58
2016-04-01T08:21:22.911Z,959.65
2016-04-01T08:22:22.913Z,959.64
2016-04-01T08:23:22.916Z,959.66
2016-04-01T08:24:22.934Z,959.64
2016-04-01T08:25:22.937Z,959.65
2016-04-01T08:26:22.939Z,959.66
2016-04-01T08:27:22.941Z,959.68
2016-04-01T08:28:22.960Z,959.65
2016-04-01T08:29:22.964Z,959.67
2016-04-01T08:30:22.966Z,959.69
2016-04-01T08:31:22.985Z,959.66
2016-04-01T08:32:22.988Z,959.72
2016-04-01T08:33:22.990Z,959.72
2016-04-01T08:34:23.008Z,959.73
2016-04-01T08:35:23.011Z,959.7
2016-04-01T08:36:23.029Z,959.72
2016-04-01T08:37:23.032Z,959.73
2016-04-01T08:38:23.019Z,959.71
2016-04-01T08:39:23.037Z,959.75
2016-04-01T08:40:23.055Z,959.78
2016-04-01T08:41:23.058Z,959.76
2016-04-01T08:42:23.060Z,959.78
2016-04-01T08:43:23.063Z,959.77
2016-04-01T08:44:23.082Z,959.78
2016-04-01T08:45:23.085Z,959.81
2016-04-01T08:46:23.087Z,959.79
2016-04-01T08:47:23.106Z,959.79
2016-04-01T08:48:23.109Z,959.9
2016-04-01T08:49:23.111Z,959.85
2016-04-01T08:50:23.114Z,959.85
2016-04-01T08:51:23.132Z,959.9
2016-04-01T08:52:23.135Z,959.89
2016-04-01T08:53:23.137Z,959.91
2016-04-01T08:54:23.156Z,959.97
2016-04-01T08:55:23.159Z,959.98
2016-04-01T08:56:23.161Z,960.02
2016-04-01T08:57:23.180Z,960.06
2016-04-01T08:58:23.182Z,960.08
2016-04-01T08:59:23.185Z,960.06
2016-04-01T09:00:23.188Z,960.07
2016-04-01T09:01:23.205Z,960.12
2016-04-01T09:02:23.208Z,960.09
2016-04-01T09:03:23.227Z,960.13
2016-04-01T09:04:23.229Z,960.15
2016-04-01T09:05:23.232Z,960.22
2016-04-01T09:06:23.235Z,960.19
2016-04-01T09:07:23.253Z,960.23
2016-04-01T09:08:23.255Z,960.23
2016-04-01T09:09:23.274Z,960.26
2016-04-01T09:10:23.277Z,960.27
2016-04-01T09:11:23.279Z,960.25
2016-04-01T09:12:23.282Z,960.29
2016-04-01T09:13:23.301Z,960.33
2016-04-01T09:14:23.303Z,960.39
2016-04-01T09:15:23.306Z,960.35
2016-04-01T09:16:23.324Z,960.38
2016-04-01T09:17:23.327Z,960.43
2016-04-01T09:18:23.329Z,960.39
2016-04-01T09:19:23.348Z,960.46
2016-04-01T09:20:23.351Z,960.49
2016-04-01T09:21:23.353Z,960.53
2016-04-01T09:22:23.372Z,960.54
2016-04-01T09:23:23.374Z,960.56
2016-04-01T09:24:23.377Z,960.58
2016-04-01T09:25:23.380Z,960.63
2016-04-01T09:26:23.397Z,960.63
2016-04-01T09:27:23.400Z,960.68
2016-04-01T09:28:23.403Z,960.71
2016-04-01T09:29:23.421Z,960.71
2016-04-01T09:30:23.424Z,960.68
2016-04-01T09:31:23.427Z,960.72
2016-04-01T09:32:23.445Z,960.67
2016-04-01T09:33:23.448Z,960.71
2016-04-01T09:34:23.451Z,960.71
2016-04-01T09:35:23.469Z,960.78
2016-04-01T09:36:23.488Z,960.75
2016-04-01T09:37:23.475Z,960.75
2016-04-01T09:38:23.493Z,960.83
2016-04-01T09:39:23.496Z,960.83
2016-04-01T09:40:23.498Z,960.87
2016-04-01T09:41:23.501Z,960.86
2016-04-01T09:42:23.519Z,960.91
2016-04-01T09:43:23.522Z,960.88
2016-04-01T09:44:23.524Z,960.92
2016-04-01T09:45:23.543Z,960.94
2016-04-01T09:46:23.546Z,960.96
2016-04-01T09:47:23.565Z,960.94
2016-04-01T09:48:23.568Z,960.99
2016-04-01T09:49:23.570Z,961.01
2016-04-01T09:50:23.588Z,961.03
2016-04-01T09:51:23.575Z,961.05
2016-04-01T09:52:23.593Z,961.05
2016-04-01T09:53:23.595Z,961.1
2016-04-01T09:54:23.614Z,961.12
2016-04-01T09:55:23.617Z,961.15
2016-04-01T09:56:23.620Z,961.21
2016-04-01T09:57:23.637Z,961.17
2016-04-01T09:58:23.640Z,961.2
2016-04-01T09:59:23.643Z,961.17
2016-04-01T10:00:23.661Z,961.2
2016-04-01T10:01:23.664Z,961.17
2016-04-01T10:02:23.666Z,961.2
2016-04-01T10:03:23.685Z,961.24
2016-04-01T10:04:23.688Z,961.24
2016-04-01T10:05:23.690Z,961.32
2016-04-01T10:06:23.708Z,961.31
2016-04-01T10:07:23.727Z,961.32
2016-04-01T10:08:23.714Z,961.39
2016-04-01T10:09:23.733Z,961.39
2016-04-01T10:10:23.736Z,961.41
2016-04-01T10:11:23.738Z,961.42
2016-04-01T10:12:23.757Z,961.43
2016-04-01T10:13:23.759Z,961.41
2016-04-01T10:14:23.762Z,961.46
2016-04-01T10:15:23.779Z,961.49
2016-04-01T10:16:23.782Z,961.48
2016-04-01T10:17:23.785Z,961.52
2016-04-01T10:18:23.788Z,961.49
2016-04-01T10:19:23.807Z,961.49
2016-04-01T10:20:23.809Z,961.49
2016-04-01T10:21:23.827Z,961.53
2016-04-01T10:22:23.829Z,961.54
2016-04-01T10:23:23.832Z,961.55
2016-04-01T10:24:23.835Z,961.55
2016-04-01T10:25:23.853Z,961.55
2016-04-01T10:26:23.856Z,961.57
2016-04-01T10:27:23.858Z,961.63
2016-04-01T10:28:23.878Z,961.67
2016-04-01T10:29:23.880Z,961.63
2016-04-01T10:30:23.898Z,961.66
2016-04-01T10:31:23.900Z,961.66
2016-04-01T10:32:23.903Z,961.68
2016-04-01T10:33:23.906Z,961.71
2016-04-01T10:34:23.925Z,961.67
2016-04-01T10:35:23.928Z,961.68
2016-04-01T10:36:23.931Z,961.72
2016-04-01T10:37:23.933Z,961.72
2016-04-01T10:38:23.936Z,961.74
2016-04-01T10:39:23.954Z,961.74
2016-04-01T10:40:23.957Z,961.83
2016-04-01T10:41:23.959Z,961.81
2016-04-01T10:42:23.962Z,961.85
2016-04-01T10:43:23.965Z,961.86
2016-04-01T10:44:23.983Z,961.87
2016-04-01T10:45:23.986Z,961.89
2016-04-01T10:46:23.988Z,961.96
2016-04-01T10:47:23.991Z,961.96
2016-04-01T10:48:24.009Z,962.01
2016-04-01T10:49:23.996Z,962.04
2016-04-01T10:50:24.014Z,962.08
2016-04-01T10:51:24.017Z,962.13
2016-04-01T10:52:24.020Z,962.09
2016-04-01T10:53:24.038Z,962.13
2016-04-01T10:54:24.041Z,962.15
2016-04-01T10:55:24.043Z,962.15
2016-04-01T10:56:24.062Z,962.13
2016-04-01T10:57:24.064Z,962.16
2016-04-01T10:58:24.067Z,962.15
2016-04-01T10:59:24.086Z,962.16
2016-04-01T11:00:24.089Z,962.16
2016-04-01T11:01:24.091Z,962.16
2016-04-01T11:02:24.094Z,962.22
2016-04-01T11:03:24.112Z,962.23
2016-04-01T11:04:24.114Z,962.22
2016-04-01T11:05:24.117Z,962.31
2016-04-01T11:06:24.119Z,962.31
2016-04-01T11:07:24.131Z,962.35
2016-04-01T11:08:24.150Z,962.34
2016-04-01T11:09:24.153Z,962.38
2016-04-01T11:10:24.156Z,962.37
2016-04-01T11:11:24.173Z,962.37
2016-04-01T11:12:24.176Z,962.4
2016-04-01T11:13:24.178Z,962.38
2016-04-01T11:14:24.181Z,962.38
2016-04-01T11:15:24.184Z,962.47
2016-04-01T11:16:24.203Z,962.43
2016-04-01T11:17:24.222Z,962.37
2016-04-01T11:18:24.224Z,962.38
2016-04-01T11:19:24.227Z,962.4
2016-04-01T11:20:24.229Z,962.43
2016-04-01T11:21:24.232Z,962.47
2016-04-01T11:22:24.249Z,962.49
2016-04-01T11:23:24.252Z,962.47
2016-04-01T11:24:24.271Z,962.49
2016-04-01T11:25:24.258Z,962.51
2016-04-01T11:26:24.277Z,962.51
2016-04-01T11:27:24.279Z,962.51
2016-04-01T11:28:24.298Z,962.56
2016-04-01T11:29:24.300Z,962.56
2016-04-01T11:30:24.303Z,962.58
2016-04-01T11:31:24.305Z,962.59
2016-04-01T11:32:24.323Z,962.61
2016-04-01T11:33:24.326Z,962.58
2016-04-01T11:34:24.329Z,962.65
2016-04-01T11:35:24.348Z,962.63
2016-04-01T11:36:24.350Z,962.66
2016-04-01T11:37:24.353Z,962.67
2016-04-01T11:38:24.355Z,962.71
2016-04-01T11:39:24.373Z,962.68
2016-04-01T11:40:24.392Z,962.71
2016-04-01T11:41:24.379Z,962.71
2016-04-01T11:42:24.398Z,962.73
2016-04-01T11:43:24.400Z,962.71
2016-04-01T11:44:24.403Z,962.7
2016-04-01T11:45:24.422Z,962.71
2016-04-01T11:46:24.439Z,962.68
2016-04-01T11:47:24.442Z,962.69
2016-04-01T11:48:24.444Z,962.69
2016-04-01T11:49:24.448Z,962.72
2016-04-01T11:50:24.450Z,962.71
2016-04-01T11:51:24.469Z,962.72
2016-04-01T11:52:24.472Z,962.73
2016-04-01T11:53:24.490Z,962.71
2016-04-01T11:54:24.493Z,962.68
2016-04-01T11:55:24.495Z,962.69
2016-04-01T11:56:24.498Z,962.69
2016-04-01T11:57:24.500Z,962.71
2016-04-01T11:58:24.518Z,962.73
2016-04-01T11:59:24.521Z,962.72
2016-04-01T12:00:24.540Z,962.71
2016-04-01T12:01:24.543Z,962.66
2016-04-01T12:02:24.545Z,962.67
2016-04-01T12:03:24.548Z,962.7
2016-04-01T12:04:24.565Z,962.69
2016-04-01T12:05:24.568Z,962.69
2016-04-01T12:06:24.587Z,962.74
2016-04-01T12:07:24.590Z,962.69
2016-04-01T12:08:24.593Z,962.72
2016-04-01T12:09:24.611Z,962.74
2016-04-01T12:10:24.614Z,962.77
2016-04-01T12:11:24.616Z,962.77
2016-04-01T12:12:24.619Z,962.82
2016-04-01T12:13:24.636Z,962.84
2016-04-01T12:14:24.639Z,962.88
2016-04-01T12:15:24.642Z,962.84
2016-04-01T12:16:24.661Z,962.82
2016-04-01T12:17:24.664Z,962.85
2016-04-01T12:18:24.683Z,962.82
2016-04-01T12:19:24.685Z,962.81
2016-04-01T12:20:24.688Z,962.78
2016-04-01T12:21:24.705Z,962.74
2016-04-01T12:22:24.708Z,962.78
2016-04-01T12:23:24.710Z,962.78
2016-04-01T12:24:24.713Z,962.78
2016-04-01T12:25:24.732Z,962.8
2016-04-01T12:26:24.734Z,962.75
2016-04-01T12:27:24.738Z,962.78
2016-04-01T12:28:24.755Z,962.76
2016-04-01T12:29:24.758Z,962.74
2016-04-01T12:30:24.760Z,962.72